Terminal Aerodrome Forecast
Issued by NWS

Home | Current Version | Previous Version | Text Only | Print | Product List | Glossary On
Versions: 1 2 3 4 5 6 7 8 9 10 11 12 13 14 15 16 17 18
000
FTUS43 KMQT 221700
TAFCMX
TAF
KCMX 221720Z 2218/2318 14009KT P6SM SCT200
     FM230300 16007KT P6SM SCT100
     FM230700 17006KT P6SM VCSH BKN080
     FM231500 17007KT P6SM -SHRA BKN025=

USA.gov is the U.S. government's official web portal to all federal, state and local government web resources and services.